Time;durP1;ratioP1;P1;durP2;ratioP2;P2;SDS_P1;SDS_P2;PMS_P1;PMS_P2;Temp;Humidity;BMP_temperature;BMP_pressure;BME280_temperature;BME280_humidity;BME280_pressure;Samples;Min_cycle;Max_cycle;Signal;HPM_P1;HPM_P2
2022/09/17 00:04:46;;;;;;;2.67;1.73;;;15.30;99.90;;;13.60;89.86;99234.34;10267017;28;97340;-88
2022/09/17 00:09:49;;;;;;;3.13;1.97;;;15.30;99.90;;;13.63;90.25;99250.78;10274496;28;97542;-88
2022/09/17 00:14:53;;;;;;;2.83;2.03;;;15.40;99.90;;;13.63;90.17;99264.13;10276334;28;96751;-88
2022/09/17 00:19:56;;;;;;;2.75;1.92;;;15.40;99.90;;;13.61;90.42;99258.19;10251992;28;97048;-89
2022/09/17 00:24:59;;;;;;;2.75;2.08;;;15.40;99.90;;;13.63;90.27;99242.78;10280172;28;97135;-88
2022/09/17 00:30:03;;;;;;;3.15;2.00;;;15.40;99.90;;;13.62;89.91;99227.78;10263766;28;98513;-89
2022/09/17 00:35:06;;;;;;;2.60;2.00;;;15.40;99.90;;;13.63;89.74;99213.41;10299468;28;96628;-89
2022/09/17 00:40:09;;;;;;;3.22;1.70;;;15.30;99.90;;;13.62;88.85;99206.44;10326319;28;96929;-89
2022/09/17 00:45:13;;;;;;;2.67;1.97;;;15.30;99.90;;;13.66;88.53;99191.63;10279537;28;97966;-89
2022/09/17 00:50:30;;;;;;;2.78;1.98;;;15.40;99.90;;;13.66;88.55;99194.28;10263360;28;96657;-88
2022/09/17 00:55:43;;;;;;;3.58;2.20;;;15.40;99.90;;;13.66;88.65;99191.63;10293204;28;97055;-89
2022/09/17 01:00:46;;;;;;;3.17;2.25;;;15.40;99.90;;;13.65;88.59;99194.50;10288270;28;97033;-89
2022/09/17 01:06:03;;;;;;;4.30;2.20;;;15.40;99.90;;;13.65;88.82;99186.50;10319524;28;96932;-91
2022/09/17 01:11:08;;;;;;;3.58;2.22;;;15.30;99.90;;;13.62;88.73;99201.09;10290202;28;96784;-90
2022/09/17 01:16:43;;;;;;;3.67;2.58;;;15.30;99.90;;;13.61;88.82;99210.16;10291023;28;97946;-90
2022/09/17 01:22:27;;;;;;;3.03;2.03;;;15.30;99.90;;;13.60;88.72;99192.47;10277898;28;96687;-91
2022/09/17 01:27:57;;;;;;;3.33;1.92;;;15.30;99.90;;;13.58;88.43;99193.72;10251090;28;97860;-92
2022/09/17 01:33:20;;;;;;;2.65;1.60;;;15.30;99.90;;;13.58;88.38;99188.38;10281902;28;96569;-89
2022/09/17 01:39:02;;;;;;;2.35;1.90;;;15.30;99.90;;;13.55;87.99;99210.13;10294386;28;96517;-90
2022/09/17 01:44:23;;;;;;;3.95;2.20;;;15.30;99.90;;;13.49;87.33;99209.13;10291268;28;98019;-91
2022/09/17 01:49:30;;;;;;;2.72;1.70;;;15.20;99.90;;;13.44;87.14;99208.16;10282061;28;97311;-90
2022/09/17 01:54:52;;;;;;;2.33;1.60;;;15.10;99.90;;;13.42;87.02;99208.34;10318804;28;96635;-90
2022/09/17 02:00:16;;;;;;;2.50;1.70;;;15.10;99.90;;;13.36;86.60;99212.66;10311093;28;98237;-90
2022/09/17 02:05:36;;;;;;;3.70;1.73;;;15.10;99.90;;;13.32;86.36;99213.31;10287567;28;96794;-91
2022/09/17 02:10:51;;;;;;;2.17;1.85;;;15.00;99.90;;;13.27;86.16;99213.94;10283316;28;96736;-91
2022/09/17 02:16:34;;;;;;;2.88;1.77;;;15.00;99.90;;;13.24;86.24;99202.84;10297800;28;97360;-90
2022/09/17 02:21:48;;;;;;;2.58;1.65;;;14.90;99.90;;;13.19;85.79;99199.97;10278846;28;98331;-89
2022/09/17 02:27:23;;;;;;;2.47;1.43;;;14.90;99.90;;;13.11;85.85;99209.81;10278674;28;98223;-87
2022/09/17 02:32:26;;;;;;;3.50;1.38;;;14.80;99.90;;;13.09;85.71;99193.22;10281273;28;96653;-88
2022/09/17 02:37:29;;;;;;;2.03;1.60;;;14.80;99.90;;;13.04;85.61;99193.03;10322792;28;96604;-87
2022/09/17 02:42:49;;;;;;;1.90;1.37;;;14.70;99.90;;;13.00;85.32;99186.44;10292195;28;96722;-87
2022/09/17 02:48:04;;;;;;;2.10;1.40;;;14.70;99.90;;;13.01;85.15;99189.94;10321952;28;98064;-88
2022/09/17 02:54:09;;;;;;;1.40;0.93;;;14.70;99.90;;;13.01;85.00;99174.75;10290763;28;96896;-88
2022/09/17 02:59:42;;;;;;;1.93;1.30;;;14.70;99.90;;;12.96;84.56;99163.91;10272222;28;98512;-91
2022/09/17 03:04:48;;;;;;;3.60;1.40;;;14.70;99.90;;;12.91;83.66;99173.56;10295189;28;98123;-90
2022/09/17 03:09:51;;;;;;;2.30;1.53;;;14.60;99.90;;;12.81;82.64;99150.00;10307700;28;96559;-92
2022/09/17 03:14:53;;;;;;;1.90;1.50;;;14.50;99.90;;;12.71;82.25;99147.72;10305030;28;96757;-91
2022/09/17 03:19:57;;;;;;;2.33;1.53;;;14.40;99.90;;;12.64;81.67;99149.59;10289427;28;96705;-91
2022/09/17 03:24:59;;;;;;;1.67;1.27;;;14.30;99.90;;;12.61;81.72;99143.88;10326136;28;97369;-91
2022/09/17 03:30:04;;;;;;;1.47;1.13;;;14.30;99.90;;;12.53;81.36;99120.91;10296500;28;96377;-91
2022/09/17 03:35:08;;;;;;;2.27;1.30;;;14.30;99.90;;;12.50;81.37;99089.34;10291244;28;96942;-90
2022/09/17 03:40:11;;;;;;;2.70;1.37;;;14.20;99.90;;;12.48;81.31;99083.41;10248894;28;96827;-90
2022/09/17 03:45:14;;;;;;;2.57;1.40;;;14.10;99.90;;;12.43;81.63;99059.25;10296731;28;97942;-90
2022/09/17 03:50:17;;;;;;;2.00;1.37;;;14.10;99.90;;;12.36;81.22;99075.25;10304427;28;96632;-90
2022/09/17 03:55:19;;;;;;;1.27;1.00;;;14.00;99.90;;;12.31;80.69;99083.84;10306571;28;96602;-90
2022/09/17 04:00:23;;;;;;;2.00;1.47;;;14.00;99.90;;;12.32;79.92;99090.81;10284944;28;96540;-91
2022/09/17 04:05:25;;;;;;;2.67;1.37;;;14.00;99.90;;;12.30;79.66;99100.84;10295516;28;97581;-91
2022/09/17 04:10:28;;;;;;;2.53;1.03;;;13.90;99.90;;;12.36;79.43;99104.53;10282267;28;97548;-90
2022/09/17 04:15:31;;;;;;;2.47;1.47;;;14.00;99.90;;;12.37;79.34;99116.00;10302170;28;96772;-90
2022/09/17 04:20:34;;;;;;;2.37;1.40;;;14.00;99.90;;;12.36;79.34;99107.19;10286646;28;96571;-89
2022/09/17 04:25:37;;;;;;;1.80;1.23;;;14.00;99.90;;;12.35;79.18;99105.53;10268796;28;98301;-89
2022/09/17 04:30:42;;;;;;;2.10;1.43;;;14.00;99.90;;;12.35;79.62;99086.91;10274839;28;97477;-89
2022/09/17 04:35:44;;;;;;;2.13;1.20;;;14.00;99.90;;;12.31;79.50;99075.03;10279877;28;96586;-88
2022/09/17 04:40:48;;;;;;;2.30;1.37;;;14.00;99.90;;;12.27;79.57;99063.97;10296233;28;96814;-88
2022/09/17 04:45:51;;;;;;;1.83;1.17;;;14.00;99.90;;;12.31;79.54;99077.69;10264513;28;98413;-87
2022/09/17 04:50:54;;;;;;;2.73;1.07;;;14.00;99.90;;;12.30;79.74;99073.41;10283780;28;97345;-87
2022/09/17 04:55:57;;;;;;;2.73;1.40;;;14.00;99.90;;;12.36;80.05;99075.25;10294712;28;96582;-87
2022/09/17 05:01:00;;;;;;;1.20;0.93;;;14.10;99.90;;;12.38;79.80;99077.69;10291633;28;97299;-89
2022/09/17 05:06:03;;;;;;;1.30;0.77;;;14.10;99.90;;;12.37;79.71;99087.53;10292158;28;96642;-89
2022/09/17 05:11:06;;;;;;;1.20;0.80;;;14.10;99.90;;;12.36;79.77;99091.22;10288261;28;96638;-88
2022/09/17 05:16:09;;;;;;;1.77;0.90;;;14.10;99.90;;;12.30;79.66;99092.88;10284795;28;97226;-89
2022/09/17 05:21:12;;;;;;;2.30;1.40;;;14.00;99.90;;;12.28;79.70;99091.41;10305181;28;96596;-90
2022/09/17 05:26:15;;;;;;;2.17;1.20;;;13.90;99.90;;;12.28;79.94;99091.41;10283209;28;96596;-90
2022/09/17 05:31:18;;;;;;;2.70;1.30;;;14.00;99.90;;;12.28;79.90;99096.75;10313870;28;96616;-92
2022/09/17 05:36:21;;;;;;;1.95;1.15;;;13.90;99.90;;;12.26;79.94;99077.50;10282341;28;96518;-90
2022/09/17 05:41:24;;;;;;;2.80;1.27;;;13.90;99.90;;;12.25;79.58;99097.97;10283993;28;97208;-92
2022/09/17 05:46:27;;;;;;;2.50;1.30;;;13.90;99.90;;;12.23;79.53;99094.69;10289236;28;96819;-93
2022/09/17 05:51:30;;;;;;;1.87;1.20;;;13.90;99.90;;;12.28;79.60;99120.72;10280708;28;98703;-94
2022/09/17 05:56:33;;;;;;;1.83;1.20;;;13.90;99.90;;;12.30;79.67;99126.66;10291102;28;97112;-91
2022/09/17 06:01:36;;;;;;;1.93;0.90;;;14.00;99.90;;;12.33;79.58;99131.56;10282338;28;96643;-88
2022/09/17 06:06:40;;;;;;;1.87;1.00;;;14.00;99.90;;;12.35;79.86;99134.84;10312786;28;96802;-91
2022/09/17 06:11:43;;;;;;;1.77;1.00;;;14.00;99.90;;;12.37;79.97;99132.81;10283289;28;96735;-93
2022/09/17 06:16:46;;;;;;;2.97;1.20;;;14.00;99.90;;;12.34;80.23;99135.88;10294407;28;97323;-91
2022/09/17 06:21:49;;;;;;;1.60;1.00;;;14.00;99.90;;;12.35;80.34;99140.16;10301703;28;96638;-90
2022/09/17 06:26:52;;;;;;;1.67;1.20;;;14.00;99.90;;;12.38;81.06;99138.97;10288073;28;98449;-90
2022/09/17 06:31:55;;;;;;;1.90;1.20;;;14.10;99.90;;;12.38;81.20;99136.28;10298074;28;97383;-91
2022/09/17 06:36:58;;;;;;;2.77;1.90;;;14.10;99.90;;;12.40;81.67;99143.03;10278088;28;98135;-86
2022/09/17 06:42:02;;;;;;;3.83;2.70;;;14.10;99.90;;;12.39;81.48;99157.41;10291421;28;97492;-90
2022/09/17 06:47:04;;;;;;;5.63;3.60;;;14.10;99.90;;;12.37;81.35;99154.13;10290892;28;97036;-90
2022/09/17 06:52:07;;;;;;;2.30;1.70;;;14.00;99.90;;;12.36;81.35;99157.81;10277955;28;96624;-94
2022/09/17 06:57:10;;;;;;;3.00;1.40;;;14.00;99.90;;;12.38;81.12;99165.59;10272139;28;98240;-91
2022/09/17 07:02:14;;;;;;;2.47;1.53;;;14.00;99.90;;;12.35;81.71;99187.31;10289486;28;96750;-92
2022/09/17 07:07:18;;;;;;;2.43;1.40;;;14.00;99.90;;;12.33;81.76;99182.19;10313450;28;96695;-87
2022/09/17 07:12:21;;;;;;;2.47;1.30;;;14.00;99.90;;;12.37;81.97;99171.97;10293145;28;96589;-87
2022/09/17 07:17:24;;;;;;;1.60;1.10;;;14.00;99.90;;;12.40;81.90;99169.69;10259526;28;98141;-86
2022/09/17 07:22:27;;;;;;;2.30;1.30;;;14.00;99.90;;;12.46;82.17;99152.88;10273044;28;98350;-92
2022/09/17 07:27:30;;;;;;;2.30;1.10;;;14.10;99.90;;;12.57;81.95;99151.44;10304131;28;96892;-88
2022/09/17 07:32:33;;;;;;;1.93;1.03;;;14.20;99.90;;;12.68;81.14;99148.16;10316933;28;96819;-89
2022/09/17 07:37:38;;;;;;;4.37;1.30;;;14.30;99.90;;;12.81;80.90;99147.31;10277453;28;96814;-88
2022/09/17 07:42:40;;;;;;;3.70;1.40;;;14.40;99.90;;;12.96;80.54;99163.91;10299621;28;97326;-89
2022/09/17 07:47:43;;;;;;;1.77;1.00;;;14.60;99.90;;;13.04;79.57;99163.69;10294551;28;98331;-90
2022/09/17 07:52:47;;;;;;;1.70;1.05;;;14.70;99.90;;;13.13;78.76;99161.59;10257427;28;97539;-90
2022/09/17 07:57:51;;;;;;;1.83;0.90;;;14.80;99.90;;;13.18;77.68;99168.97;10303036;28;96619;-96
2022/09/17 08:02:55;;;;;;;1.17;0.65;;;14.80;99.90;;;13.18;76.69;99174.31;10265894;28;96721;-93
2022/09/17 08:07:58;;;;;;;1.43;0.90;;;14.80;99.90;;;13.22;75.32;99178.25;10280416;28;96777;-92
2022/09/17 08:13:01;;;;;;;1.10;0.70;;;14.90;99.90;;;13.21;75.90;99179.28;10309275;28;96904;-94
2022/09/17 08:18:03;;;;;;;3.33;1.20;;;14.90;99.90;;;13.15;76.33;99193.41;10290114;28;96663;-91
2022/09/17 08:23:06;;;;;;;1.80;1.10;;;14.80;99.90;;;13.10;76.68;99199.38;10261475;28;96666;-91
2022/09/17 08:28:09;;;;;;;1.80;0.90;;;14.80;99.90;;;13.05;76.78;99215.19;10295707;28;97312;-93
2022/09/17 08:33:12;;;;;;;1.60;1.00;;;14.70;99.90;;;13.00;77.17;99212.31;10270678;28;96772;-92
2022/09/17 08:38:15;;;;;;;1.70;1.10;;;14.70;99.90;;;12.95;77.61;99212.91;10311831;28;96802;-91
2022/09/17 08:43:19;;;;;;;2.43;1.13;;;14.60;99.90;;;12.96;77.76;99203.09;10277911;28;96521;-90
2022/09/17 08:48:28;;;;;;;2.17;1.60;;;14.60;99.90;;;12.97;77.39;99196.75;10291332;28;97373;-92
2022/09/17 08:53:45;;;;;;;2.65;1.05;;;14.60;99.90;;;12.97;77.27;99184.22;10278623;28;98187;-91
2022/09/17 08:59:23;;;;;;;2.38;1.23;;;14.60;99.90;;;13.00;76.88;99185.63;10279458;28;99052;-94
2022/09/17 09:04:35;;;;;;;1.67;1.10;;;14.60;99.90;;;13.08;77.45;99180.91;10299600;28;97979;-92
2022/09/17 09:09:49;;;;;;;2.25;1.33;;;14.70;99.90;;;13.17;77.08;99188.69;10291541;28;97388;-92
2022/09/17 09:15:24;;;;;;;2.15;1.20;;;14.80;99.90;;;13.26;76.47;99206.16;10286074;28;96804;-94
2022/09/17 09:20:50;;;;;;;1.42;1.13;;;14.90;99.90;;;13.25;75.18;99213.31;10310526;28;97398;-93
2022/09/17 09:26:19;;;;;;;2.45;1.30;;;14.90;99.90;;;13.24;74.64;99217.00;10292029;28;97448;-94
2022/09/17 09:32:05;;;;;;;2.20;1.50;;;14.90;99.90;;;13.24;75.14;99219.69;10288219;28;97150;-92
2022/09/17 09:37:29;;;;;;;2.40;1.58;;;15.00;99.90;;;13.24;75.71;99197.50;10284424;28;97674;-93
2022/09/17 09:42:36;;;;;;;1.80;1.40;;;15.00;99.90;;;13.21;76.24;99203.28;10303125;28;97187;-94
2022/09/17 09:48:11;;;;;;;3.27;1.37;;;15.00;99.90;;;13.27;76.36;99197.94;10299607;28;97463;-91
2022/09/17 09:53:30;;;;;;;2.25;1.05;;;15.00;99.90;;;13.32;76.33;99207.97;10270700;28;99082;-91
2022/09/17 09:58:39;;;;;;;2.50;1.40;;;15.00;99.90;;;13.42;76.15;99216.34;10276241;28;97793;-93
2022/09/17 10:03:45;;;;;;;1.77;1.27;;;15.10;99.90;;;13.54;75.79;99204.00;10294093;28;96660;-93
2022/09/17 10:08:53;;;;;;;2.72;1.48;;;15.20;99.90;;;13.62;74.29;99198.44;10294562;28;98098;-90
2022/09/17 10:14:25;;;;;;;1.77;1.17;;;15.30;99.90;;;13.74;73.91;99182.56;10285833;28;98244;-89
2022/09/17 10:19:28;;;;;;;1.25;0.80;;;15.40;99.90;;;13.91;72.94;99185.53;10295938;28;96561;-85
2022/09/17 10:24:33;;;;;;;4.05;1.30;;;15.50;99.90;;;14.05;71.41;99173.75;10284394;28;97197;-86
2022/09/17 10:29:41;;;;;;;2.70;1.35;;;15.70;99.90;;;14.12;70.23;99174.53;10289668;28;98398;-91
2022/09/17 10:35:26;;;;;;;3.60;2.05;;;15.80;99.80;;;14.18;69.19;99157.63;10287978;28;96576;-91
2022/09/17 10:40:31;;;;;;;1.77;0.82;;;15.80;99.00;;;14.23;68.28;99137.47;10276242;28;97560;-91
2022/09/17 10:45:39;;;;;;;2.65;0.75;;;15.90;98.80;;;14.30;66.98;99159.63;10293382;28;96581;-93
2022/09/17 10:50:57;;;;;;;1.25;0.70;;;16.00;98.00;;;14.24;65.30;99184.53;10276835;28;98373;-92
2022/09/17 10:56:16;;;;;;;1.20;0.50;;;15.90;97.10;;;14.16;64.32;99153.56;10318130;28;96623;-93
2022/09/17 11:01:51;;;;;;;1.95;0.50;;;15.80;95.90;;;14.10;64.18;99111.69;10275945;28;96799;-92
2022/09/17 11:07:25;;;;;;;0.70;0.40;;;15.70;95.80;;;14.07;63.16;99096.88;10288432;28;96611;-93
2022/09/17 11:13:29;;;;;;;1.05;0.50;;;15.70;95.50;;;14.06;63.32;99103.25;10292942;28;97438;-93
2022/09/17 11:18:45;;;;;;;1.77;0.45;;;15.70;95.30;;;14.03;62.75;99110.88;10255323;28;97685;-92
2022/09/17 11:24:14;;;;;;;1.30;0.70;;;15.70;94.50;;;14.05;62.29;99115.00;10259703;28;97117;-88
2022/09/17 11:30:15;;;;;;;3.28;0.80;;;15.70;94.50;;;14.04;60.97;99116.03;10302428;28;96662;-92
2022/09/17 11:35:58;;;;;;;1.20;0.50;;;15.70;92.90;;;14.02;60.42;99141.31;10269167;28;97877;-92
2022/09/17 11:41:41;;;;;;;0.40;0.30;;;15.70;93.10;;;13.98;60.73;99111.56;10254789;28;96911;-91
2022/09/17 11:47:33;;;;;;;0.38;0.28;;;15.60;93.10;;;14.07;60.96;99107.56;10310657;28;96554;-93
2022/09/17 11:52:44;;;;;;;1.55;0.55;;;15.70;93.30;;;14.05;59.90;99119.50;10255362;28;98342;-91
2022/09/17 11:57:53;;;;;;;1.08;0.40;;;15.70;92.50;;;14.04;60.80;99099.19;10281041;28;96770;-93
2022/09/17 12:03:08;;;;;;;1.48;0.40;;;15.60;93.10;;;14.08;60.44;99062.97;10311712;28;97284;-92
2022/09/17 12:08:36;;;;;;;3.15;0.47;;;15.70;92.80;;;14.13;60.15;99061.28;10290797;28;97157;-92
2022/09/17 12:13:48;;;;;;;0.47;0.40;;;15.70;92.50;;;14.13;59.96;99047.09;10253637;28;98060;-90
2022/09/17 12:18:56;;;;;;;1.95;0.70;;;15.70;92.00;;;14.15;60.01;99008.47;10263414;28;96962;-91
2022/09/17 12:24:22;;;;;;;1.08;0.40;;;15.80;92.50;;;14.28;60.17;99009.38;10290951;28;97434;-92
2022/09/17 12:29:37;;;;;;;4.18;0.60;;;15.90;92.40;;;14.35;59.47;99000.25;10281792;28;96556;-91
2022/09/17 12:35:13;;;;;;;0.52;0.30;;;16.00;92.00;;;14.33;59.89;98980.13;10287208;28;97473;-92
2022/09/17 12:40:31;;;;;;;2.95;0.82;;;16.00;92.00;;;14.26;59.90;98984.72;10293917;28;98068;-92
2022/09/17 12:46:00;;;;;;;2.53;0.50;;;15.90;92.00;;;14.12;59.68;98981.38;10326972;28;98373;-93
2022/09/17 12:51:17;;;;;;;1.33;0.57;;;15.70;91.80;;;14.04;60.37;98974.47;10306509;28;98530;-92
2022/09/17 12:57:11;;;;;;;1.00;0.40;;;15.70;92.30;;;13.96;60.76;98952.53;10260867;28;96598;-90
2022/09/17 13:02:15;;;;;;;1.25;0.50;;;15.60;92.30;;;13.88;61.33;98991.03;10286393;28;97457;-93
2022/09/17 13:08:09;;;;;;;0.68;0.38;;;15.50;92.70;;;13.80;61.54;99000.13;10293660;28;98165;-92
2022/09/17 13:13:46;;;;;;;1.70;0.55;;;15.40;92.80;;;13.75;62.28;99012.50;10214289;28;96627;-92
2022/09/17 13:19:12;;;;;;;1.02;0.60;;;15.40;93.30;;;13.67;62.00;98992.22;10315545;28;97308;-93
2022/09/17 13:24:26;;;;;;;1.88;1.30;;;15.30;93.00;;;13.62;61.58;99008.09;10291878;28;96704;-91
2022/09/17 13:29:44;;;;;;;0.95;0.68;;;15.30;92.70;;;13.60;62.35;98992.25;10297856;28;96704;-92
2022/09/17 13:34:47;;;;;;;1.45;0.90;;;15.20;93.20;;;13.59;62.38;98976.47;10312918;28;96738;-94
2022/09/17 13:39:50;;;;;;;1.50;1.10;;;15.20;93.20;;;13.54;62.29;98966.44;10297785;28;96618;-92
2022/09/17 13:45:22;;;;;;;4.45;2.47;;;15.20;93.10;;;13.49;62.73;98946.78;10283293;28;96642;-90
2022/09/17 13:50:39;;;;;;;1.55;0.80;;;15.10;93.50;;;13.50;63.00;98937.75;10286650;28;96618;-91
2022/09/17 13:55:48;;;;;;;2.80;0.90;;;15.10;93.40;;;13.47;62.74;98952.34;10299608;28;98308;-89
2022/09/17 14:01:03;;;;;;;1.85;1.23;;;15.00;93.50;;;13.45;62.95;98948.25;10267805;28;98017;-91
2022/09/17 14:06:16;;;;;;;2.40;1.30;;;15.00;93.40;;;13.38;62.89;98932.31;10321346;28;96567;-91
2022/09/17 14:11:22;;;;;;;1.38;0.60;;;15.00;93.40;;;13.32;62.44;98938.50;10271428;28;98381;-92
2022/09/17 14:16:37;;;;;;;2.80;0.90;;;14.90;92.90;;;13.27;62.83;98946.34;10280629;28;97667;-93
2022/09/17 14:21:43;;;;;;;2.08;0.65;;;14.80;93.30;;;13.20;62.89;98950.88;10293133;28;96843;-91
2022/09/17 14:27:17;;;;;;;4.63;1.52;;;14.80;93.30;;;13.16;63.01;98955.00;10277595;28;96654;-93
2022/09/17 14:32:53;;;;;;;12.90;3.35;;;14.80;93.40;;;13.09;63.43;98963.84;10286869;28;98398;-91
2022/09/17 14:38:35;;;;;;;12.30;3.53;;;14.70;93.60;;;13.03;63.52;98977.22;10290302;28;96624;-90
2022/09/17 14:43:53;;;;;;;;;;;14.60;93.50;;;12.96;63.68;99000.44;10269747;28;97323;-95
2022/09/17 14:49:23;;;;;;;3.53;0.90;;;14.60;93.70;;;12.91;64.00;99005.59;10296513;28;98293;-91
2022/09/17 14:54:33;;;;;;;3.10;1.50;;;14.50;93.80;;;12.85;63.47;99008.06;10276273;28;98546;-89
2022/09/17 14:59:56;;;;;;;1.83;0.90;;;14.50;93.40;;;12.82;63.50;98992.47;10295027;28;96540;-90
2022/09/17 15:05:00;;;;;;;;;;;14.50;93.50;;;12.79;63.42;98986.78;10282898;28;98385;-91
2022/09/17 15:10:16;;;;;;;1.33;0.70;;;14.40;93.10;;;12.79;63.87;98992.09;10281869;28;96537;-91
2022/09/17 15:15:23;;;;;;;1.17;0.50;;;14.40;93.50;;;12.76;63.57;98997.84;10309966;28;97374;-91
2022/09/17 15:20:32;;;;;;;1.00;0.70;;;14.40;93.20;;;12.73;63.80;98991.09;10288893;28;96625;-90
2022/09/17 15:25:37;;;;;;;1.43;0.60;;;14.40;93.40;;;12.74;63.59;98995.41;10284898;28;96556;-91
2022/09/17 15:30:40;;;;;;;4.10;0.90;;;14.40;93.40;;;12.67;63.28;98970.63;10275101;28;97085;-89
2022/09/17 15:36:26;;;;;;;1.55;0.55;;;14.40;93.00;;;12.72;63.12;98978.81;10260563;28;96534;-88
2022/09/17 15:41:34;;;;;;;1.88;0.70;;;14.40;93.00;;;12.65;62.98;98958.50;10262175;28;96625;-94
2022/09/17 15:46:37;;;;;;;1.30;0.80;;;14.40;92.90;;;12.71;63.11;98963.00;10288109;28;98455;-90
2022/09/17 15:51:41;;;;;;;1.17;0.50;;;14.40;93.10;;;12.69;63.66;98955.22;10305267;28;96639;-94
2022/09/17 15:56:59;;;;;;;0.90;0.60;;;14.40;93.40;;;12.67;64.01;98929.81;10307728;28;96622;-89
2022/09/17 16:02:02;;;;;;;0.50;0.40;;;14.40;93.50;;;12.64;64.31;98922.25;10268936;28;96839;-88
2022/09/17 16:07:11;;;;;;;3.00;0.80;;;14.30;93.60;;;12.63;65.07;98921.41;10314309;28;96559;-88
2022/09/17 16:12:21;;;;;;;0.93;0.53;;;14.30;93.90;;;12.56;65.04;98926.78;10264743;28;97096;-88
2022/09/17 16:17:46;;;;;;;3.37;0.90;;;14.30;94.00;;;12.53;65.17;98919.22;10277562;28;96643;-88
2022/09/17 16:22:51;;;;;;;2.93;1.43;;;14.20;94.00;;;12.46;65.55;98915.75;10306493;28;96874;-87
2022/09/17 16:28:02;;;;;;;3.83;1.37;;;14.20;94.40;;;12.49;65.59;98911.88;10286028;28;96675;-89
2022/09/17 16:33:05;;;;;;;1.20;0.90;;;14.20;94.30;;;12.47;65.67;98903.25;10315832;28;96816;-90
2022/09/17 16:38:10;;;;;;;1.20;0.50;;;14.10;94.40;;;12.43;66.07;98881.56;10261778;28;97447;-85
2022/09/17 16:43:13;;;;;;;1.40;0.70;;;14.10;94.60;;;12.42;66.17;98890.56;10269029;28;96612;-87
2022/09/17 16:48:16;;;;;;;0.87;0.50;;;14.10;94.50;;;12.43;66.01;98889.53;10309748;28;97109;-86
2022/09/17 16:53:19;;;;;;;3.93;0.63;;;14.10;94.60;;;12.42;66.18;98895.91;10300888;28;96669;-87
2022/09/17 16:58:22;;;;;;;1.10;0.70;;;14.10;94.70;;;12.40;66.75;98918.44;10280970;28;97269;-85
2022/09/17 17:03:25;;;;;;;2.60;0.90;;;14.00;95.10;;;12.33;67.64;98919.28;10280350;28;97895;-91
2022/09/17 17:08:33;;;;;;;2.03;0.80;;;14.00;95.70;;;12.25;68.79;98910.72;10304534;28;96966;-89
2022/09/17 17:13:36;;;;;;;1.53;0.90;;;13.90;96.50;;;12.11;69.83;98927.75;10289860;28;96535;-89
2022/09/17 17:18:42;;;;;;;2.93;0.90;;;13.80;97.20;;;11.99;70.57;98924.91;10307091;28;96537;-88
2022/09/17 17:23:46;;;;;;;1.70;0.90;;;13.60;97.20;;;11.91;70.96;98919.81;10297671;28;96490;-87
2022/09/17 17:28:49;;;;;;;2.50;1.20;;;13.60;97.50;;;11.90;71.33;98907.53;10297958;28;96972;-86
2022/09/17 17:33:52;;;;;;;1.87;1.63;;;13.50;97.90;;;11.85;71.29;98908.13;10295382;28;96603;-89
2022/09/17 17:38:59;;;;;;;1.07;0.60;;;13.50;97.70;;;11.85;71.08;98910.81;10294347;28;96566;-88
2022/09/17 17:44:03;;;;;;;0.83;0.67;;;13.50;97.60;;;11.85;71.22;98910.81;10294464;28;96594;-87
2022/09/17 17:49:07;;;;;;;3.93;1.77;;;13.50;97.50;;;11.89;70.87;98921.88;10294459;28;96693;-87
2022/09/17 17:54:10;;;;;;;4.67;1.67;;;13.60;97.60;;;11.90;70.78;98924.31;10272593;28;96655;-88
2022/09/17 17:59:13;;;;;;;1.30;0.80;;;13.60;97.40;;;11.91;70.60;98939.25;10295020;28;96682;-86
2022/09/17 18:04:16;;;;;;;1.80;0.87;;;13.60;97.20;;;11.91;70.21;98955.22;10294198;28;96359;-89
2022/09/17 18:09:19;;;;;;;2.03;0.80;;;13.50;97.10;;;11.94;70.21;98962.00;10294574;28;97136;-92
2022/09/17 18:14:22;;;;;;;0.83;0.40;;;13.60;97.00;;;11.94;70.11;98968.13;10310081;28;96496;-88
2022/09/17 18:19:24;;;;;;;1.67;0.77;;;13.60;97.10;;;11.96;70.21;98986.56;10310232;28;97951;-89
2022/09/17 18:24:27;;;;;;;1.00;0.60;;;13.60;97.20;;;11.97;69.93;98989.00;10275889;28;97868;-88
2022/09/17 18:29:30;;;;;;;2.90;0.93;;;13.60;97.00;;;11.97;69.87;98972.22;10269396;28;96509;-90
2022/09/17 18:34:35;;;;;;;1.10;0.50;;;13.60;97.00;;;11.96;69.97;98967.94;10323372;28;98454;-88
2022/09/17 18:39:38;;;;;;;1.27;0.73;;;13.60;97.10;;;11.96;70.34;98976.72;10309801;28;96560;-90
2022/09/17 18:45:01;;;;;;;2.30;0.77;;;13.60;97.20;;;11.95;69.85;98968.97;10272544;28;97648;-88
2022/09/17 18:50:04;;;;;;;1.50;1.00;;;13.60;96.90;;;11.95;69.95;98974.28;10304240;28;96612;-88
2022/09/17 18:55:07;;;;;;;2.40;0.80;;;13.60;97.20;;;11.99;69.85;98976.31;10293237;28;96624;-90
2022/09/17 19:00:10;;;;;;;3.10;1.10;;;13.60;96.90;;;11.96;69.78;98974.06;10292407;28;96601;-89
2022/09/17 19:05:15;;;;;;;2.53;1.17;;;13.60;97.10;;;11.95;69.85;98969.78;10291452;28;96733;-91
2022/09/17 19:10:18;;;;;;;1.77;0.80;;;13.60;97.10;;;11.97;69.82;98961.56;10292123;28;96626;-89
2022/09/17 19:15:23;;;;;;;0.90;0.60;;;13.60;97.10;;;11.97;69.71;98958.91;10293985;28;96514;-88
2022/09/17 19:20:25;;;;;;;0.90;0.70;;;13.60;97.10;;;11.95;69.85;98964.44;10277263;28;96594;-94
2022/09/17 19:25:29;;;;;;;1.50;0.80;;;13.60;97.10;;;11.94;69.91;98960.16;10290726;28;96541;-93
2022/09/17 19:30:33;;;;;;;0.87;0.60;;;13.60;97.30;;;11.96;70.32;98983.91;10287896;28;97407;-92
2022/09/17 19:35:36;;;;;;;1.23;0.60;;;13.60;97.40;;;11.92;70.42;99007.44;10307355;28;96709;-91
2022/09/17 19:40:39;;;;;;;0.63;0.53;;;13.50;97.50;;;11.90;70.71;98998.84;10293094;28;96994;-88
2022/09/17 19:45:42;;;;;;;0.83;0.50;;;13.50;97.70;;;11.86;71.28;99000.28;10285406;28;96525;-87
2022/09/17 19:50:52;;;;;;;2.53;0.60;;;13.50;98.10;;;11.80;72.12;99003.72;10299157;28;96716;-90
2022/09/17 19:55:55;;;;;;;1.17;0.52;;;13.50;98.50;;;11.73;72.80;99010.91;10266964;28;96510;-90
2022/09/17 20:00:58;;;;;;;1.20;0.50;;;13.30;98.90;;;11.64;73.80;99012.13;10306725;28;96603;-91
2022/09/17 20:06:05;;;;;;;1.17;0.67;;;13.30;99.60;;;11.58;74.20;99015.59;10291225;28;96566;-91
2022/09/17 20:11:10;;;;;;;1.43;0.73;;;13.20;99.70;;;11.49;74.81;99006.97;10269735;28;96632;-90
2022/09/17 20:16:19;;;;;;;2.50;0.77;;;13.20;99.90;;;11.49;74.98;99007.81;10250845;28;96555;-94
2022/09/17 20:21:26;;;;;;;1.27;0.60;;;13.20;99.90;;;11.48;75.02;99011.50;10289885;28;98211;-90
2022/09/17 20:26:29;;;;;;;1.17;0.80;;;13.10;99.90;;;11.42;74.96;99006.97;10281583;28;98061;-91
2022/09/17 20:31:33;;;;;;;2.13;0.80;;;13.10;99.90;;;11.47;75.17;99014.34;10288741;28;98401;-91
2022/09/17 20:36:37;;;;;;;0.63;0.57;;;13.10;99.90;;;11.46;75.03;99018.84;10287531;28;96730;-89
2022/09/17 20:41:41;;;;;;;0.77;0.60;;;13.10;99.90;;;11.47;75.19;99022.34;10288476;28;96569;-92
2022/09/17 20:46:43;;;;;;;1.07;0.77;;;13.10;99.90;;;11.48;75.26;99030.09;10283996;28;97125;-89
2022/09/17 20:51:46;;;;;;;1.10;0.80;;;13.10;99.90;;;11.50;75.24;99040.53;10289790;28;96695;-90
2022/09/17 20:56:49;;;;;;;1.67;0.90;;;13.10;99.90;;;11.51;75.34;99037.69;10310740;28;96621;-90
2022/09/17 21:01:52;;;;;;;1.33;0.70;;;13.20;99.90;;;11.53;75.28;99034.81;10291389;28;97339;-89
2022/09/17 21:06:55;;;;;;;1.23;0.57;;;13.20;99.90;;;11.51;75.41;99040.34;10306635;28;96516;-92
2022/09/17 21:11:58;;;;;;;1.10;0.67;;;13.20;99.90;;;11.54;75.41;99044.44;10289841;28;97935;-91
2022/09/17 21:17:02;;;;;;;1.27;0.70;;;13.20;99.90;;;11.51;75.63;99052.81;10290875;28;96673;-92
2022/09/17 21:22:05;;;;;;;0.67;0.50;;;13.20;99.90;;;11.53;75.67;99051.59;10280738;28;97869;-90
2022/09/17 21:27:08;;;;;;;1.27;0.60;;;13.20;99.90;;;11.53;75.65;99053.47;10297319;28;96699;-87
2022/09/17 21:32:10;;;;;;;1.67;0.60;;;13.20;99.90;;;11.52;75.69;99063.28;10281305;28;97358;-88
2022/09/17 21:37:13;;;;;;;0.90;0.50;;;13.20;99.90;;;11.50;75.96;99057.31;10287032;28;96625;-89